createdAt,value
2019-01-23T00:05:39.465Z,-4.40
2019-01-23T06:16:23.348Z,-6.70
2019-01-23T06:38:43.173Z,-7.00
2019-01-23T08:54:32.247Z,-4.60
2019-01-23T08:57:05.101Z,-4.40
2019-01-23T09:00:09.550Z,-4.20
2019-01-23T09:02:45.047Z,-4.10
2019-01-23T09:05:17.064Z,-3.90
2019-01-23T09:07:45.883Z,-3.70
2019-01-23T09:10:17.541Z,-3.70
2019-01-23T09:12:46.818Z,-3.50
2019-01-23T09:15:16.456Z,-3.50
2019-01-23T09:17:45.121Z,-3.50
2019-01-23T09:20:17.414Z,-3.30
2019-01-23T09:22:46.089Z,-3.00
2019-01-23T09:25:19.776Z,-3.00
2019-01-23T09:27:48.407Z,-2.80
2019-01-23T09:30:43.239Z,-2.60
2019-01-23T09:33:31.323Z,-2.50
2019-01-23T09:36:23.554Z,-2.40
2019-01-23T09:39:14.149Z,-2.20
2019-01-23T09:42:00.876Z,-2.30
2019-01-23T09:45:02.354Z,-2.10
2019-01-23T09:47:40.641Z,-2.00
2019-01-23T09:50:29.465Z,-1.70
2019-01-23T09:53:03.646Z,-1.60
2019-01-23T09:55:32.448Z,-1.40
2019-01-23T09:58:01.020Z,-1.40
2019-01-23T10:00:31.694Z,-1.60
2019-01-23T10:03:00.041Z,-1.30
2019-01-23T10:05:28.671Z,-1.10
2019-01-23T10:07:57.260Z,-1.20
2019-01-23T10:10:25.816Z,-1.50
2019-01-23T10:12:54.329Z,-1.60
2019-01-23T10:15:25.922Z,-1.50
2019-01-23T10:17:54.460Z,-1.50
2019-01-23T10:20:22.968Z,-1.90
2019-01-23T10:22:51.528Z,-2.10
2019-01-23T10:25:20.171Z,-2.10
2019-01-23T10:27:50.935Z,-2.10
2019-01-23T10:30:19.719Z,-2.60
2019-01-23T10:32:48.554Z,-2.40
2019-01-23T10:35:18.602Z,-2.20
2019-01-23T10:37:47.206Z,-2.00
2019-01-23T10:40:18.171Z,-2.10
2019-01-23T10:42:46.870Z,-1.80
2019-01-23T10:45:16.273Z,-1.50
2019-01-23T10:47:45.140Z,-1.50
2019-01-23T10:50:18.165Z,-1.30
2019-01-23T10:52:46.811Z,-0.90
2019-01-23T10:55:15.447Z,-0.60
2019-01-23T10:57:44.115Z,-0.70
2019-01-23T11:00:16.173Z,-0.80
2019-01-23T11:02:44.844Z,-0.60
2019-01-23T11:05:16.477Z,-0.30
2019-01-23T11:07:45.008Z,-0.40
2019-01-23T11:10:19.037Z,-0.30
2019-01-23T11:12:47.660Z,-0.20
2019-01-23T11:15:16.282Z,0.00
2019-01-23T11:17:44.884Z,-0.20
2019-01-23T11:20:16.000Z,0.00
2019-01-23T11:22:44.628Z,0.30
2019-01-23T11:25:15.232Z,0.30
2019-01-23T11:27:44.630Z,0.10
2019-01-23T11:30:24.415Z,0.20
2019-01-23T11:32:53.184Z,0.00
2019-01-23T11:35:21.720Z,-0.10
2019-01-23T11:37:50.800Z,-0.10
2019-01-23T11:40:24.925Z,0.30
2019-01-23T11:42:53.667Z,0.40
2019-01-23T11:45:22.303Z,0.40
2019-01-23T11:47:50.989Z,0.20
2019-01-23T11:50:22.917Z,0.20
2019-01-23T11:52:50.427Z,0.20
2019-01-23T11:55:19.039Z,0.50
2019-01-23T11:57:47.560Z,0.90
2019-01-23T12:00:24.898Z,1.20
2019-01-23T12:02:53.486Z,1.20
2019-01-23T12:05:22.992Z,1.20
2019-01-23T12:07:51.946Z,0.90
2019-01-23T12:10:23.051Z,0.50
2019-01-23T12:12:51.755Z,0.10
2019-01-23T12:15:22.325Z,0.00
2019-01-23T12:17:50.998Z,-0.10
2019-01-23T12:20:20.026Z,-0.30
2019-01-23T12:22:48.632Z,-0.70
2019-01-23T12:25:17.274Z,-1.00
2019-01-23T12:27:45.990Z,-1.20
2019-01-23T12:30:23.205Z,-1.40
2019-01-23T12:32:51.891Z,-1.50
2019-01-23T12:35:22.636Z,-1.40
2019-01-23T12:37:52.930Z,-1.30
2019-01-23T12:40:21.540Z,-1.00
2019-01-23T12:42:50.715Z,-0.80
2019-01-23T12:45:27.462Z,-0.70
2019-01-23T12:47:56.267Z,-0.80
2019-01-23T12:50:27.769Z,-0.60
2019-01-23T12:52:56.229Z,-0.50
2019-01-23T12:55:24.896Z,-0.40
2019-01-23T12:57:53.548Z,-0.40
2019-01-23T13:00:27.100Z,-0.40
2019-01-23T13:02:55.925Z,-0.20
2019-01-23T13:05:24.873Z,0.00
2019-01-23T13:07:53.504Z,0.00
2019-01-23T13:10:23.897Z,0.10
2019-01-23T13:12:53.584Z,0.00
2019-01-23T13:15:26.951Z,-0.30
2019-01-23T13:17:55.949Z,-0.70
2019-01-23T13:20:26.092Z,-0.50
2019-01-23T13:22:54.738Z,-0.70
2019-01-23T13:25:25.140Z,-0.80
2019-01-23T13:27:54.150Z,-0.90
2019-01-23T13:30:24.673Z,-0.60
2019-01-23T13:32:53.400Z,-0.90
2019-01-23T13:35:24.784Z,-0.90
2019-01-23T13:37:53.476Z,-0.90
2019-01-23T13:40:24.374Z,-0.90
2019-01-23T13:42:52.948Z,-0.60
2019-01-23T13:45:21.596Z,-0.70
2019-01-23T13:47:50.354Z,-1.00
2019-01-23T13:50:19.905Z,-1.10
2019-01-23T13:52:48.567Z,-1.20
2019-01-23T13:55:22.328Z,-1.20
2019-01-23T13:57:50.961Z,-1.30
2019-01-23T14:00:35.515Z,-1.40
2019-01-23T14:03:04.740Z,-1.40
2019-01-23T14:05:33.423Z,-1.60
2019-01-23T14:08:02.076Z,-1.60
2019-01-23T14:10:30.609Z,-1.80
2019-01-23T14:12:59.173Z,-1.80
2019-01-23T14:15:32.225Z,-1.80
2019-01-23T14:18:00.931Z,-1.70
2019-01-23T14:20:30.203Z,-1.70
2019-01-23T14:22:58.804Z,-1.60
2019-01-23T14:25:27.347Z,-1.60
2019-01-23T14:27:56.052Z,-1.50
2019-01-23T14:30:32.949Z,-1.40
2019-01-23T14:33:01.635Z,-1.70
2019-01-23T14:35:30.849Z,-1.90
2019-01-23T14:38:00.783Z,-2.00
2019-01-23T14:40:29.829Z,-2.00
2019-01-23T14:42:58.467Z,-2.10
2019-01-23T14:45:27.271Z,-1.90
2019-01-23T14:47:57.968Z,-2.00
2019-01-23T14:50:26.546Z,-2.00
2019-01-23T14:52:55.216Z,-1.80
2019-01-23T14:55:23.974Z,-1.60
2019-01-23T14:57:52.702Z,-1.40
2019-01-23T15:00:26.154Z,-1.30
2019-01-23T15:02:54.845Z,-1.20
2019-01-23T15:05:23.446Z,-1.40
2019-01-23T15:07:52.150Z,-1.70
2019-01-23T15:10:31.805Z,-1.80
2019-01-23T15:13:01.697Z,-1.90
2019-01-23T15:15:31.968Z,-2.00
2019-01-23T15:18:01.763Z,-1.90
2019-01-23T15:20:33.907Z,-2.00
2019-01-23T15:23:02.480Z,-2.10
2019-01-23T15:25:34.021Z,-2.10
2019-01-23T15:28:04.346Z,-2.10
2019-01-23T15:30:32.890Z,-2.10
2019-01-23T15:33:01.541Z,-2.20
2019-01-23T15:35:31.091Z,-2.40
2019-01-23T15:38:00.950Z,-2.30
2019-01-23T15:40:35.183Z,-2.50
2019-01-23T15:43:04.676Z,-2.50
2019-01-23T15:45:33.337Z,-2.50
2019-01-23T15:48:02.946Z,-2.60
2019-01-23T15:50:31.650Z,-2.60
2019-01-23T15:53:00.297Z,-2.70
2019-01-23T15:55:28.882Z,-2.80
2019-01-23T15:57:57.506Z,-2.80
2019-01-23T16:00:28.388Z,-2.90
2019-01-23T16:02:57.107Z,-2.90
2019-01-23T16:05:25.669Z,-3.00
2019-01-23T16:07:56.036Z,-3.10
2019-01-23T16:10:26.483Z,-3.10
2019-01-23T16:12:55.171Z,-3.10
2019-01-23T16:15:26.005Z,-3.20
2019-01-23T16:17:54.671Z,-3.30
2019-01-23T16:20:24.894Z,-3.30
2019-01-23T16:22:53.646Z,-3.40
2019-01-23T16:25:23.771Z,-3.50
2019-01-23T16:27:52.525Z,-3.60
2019-01-23T16:30:26.823Z,-3.60
2019-01-23T16:32:55.549Z,-3.70
2019-01-23T16:35:28.473Z,-3.80
2019-01-23T16:47:34.610Z,-4.00
2019-01-23T17:13:05.603Z,-4.70
2019-01-23T17:33:45.561Z,-4.60
2019-01-23T17:40:18.839Z,-4.40
2019-01-23T17:42:56.839Z,-4.40
2019-01-23T17:45:41.991Z,-4.30
2019-01-23T17:48:12.699Z,-4.30
2019-01-23T17:50:48.681Z,-4.30
2019-01-23T19:09:18.288Z,-3.80
2019-01-23T19:11:57.599Z,-3.80
2019-01-23T19:14:26.478Z,-3.80
2019-01-23T19:17:00.820Z,-3.80
2019-01-23T19:19:38.303Z,-3.80
2019-01-23T19:22:11.868Z,-3.80
2019-01-23T19:24:41.854Z,-3.80
2019-01-23T19:27:10.661Z,-3.80
2019-01-23T19:29:41.049Z,-3.80
2019-01-23T19:32:09.735Z,-3.80
2019-01-23T19:34:39.221Z,-3.70
2019-01-23T19:37:09.987Z,-3.70
2019-01-23T19:39:44.431Z,-3.70
2019-01-23T19:42:14.139Z,-3.70
2019-01-23T19:44:44.833Z,-3.70
2019-01-23T19:47:18.239Z,-3.70
2019-01-23T19:49:50.150Z,-3.80
2019-01-23T19:52:18.964Z,-3.80
2019-01-23T19:54:48.107Z,-3.70
2019-01-23T19:57:19.380Z,-3.70
2019-01-23T19:59:50.532Z,-3.80
2019-01-23T20:02:20.101Z,-3.80
2019-01-23T20:04:49.120Z,-3.70
2019-01-23T20:07:23.795Z,-3.70
2019-01-23T20:10:02.560Z,-3.70
2019-01-23T20:12:34.304Z,-3.70
2019-01-23T20:15:09.702Z,-3.70
2019-01-23T20:17:39.325Z,-3.70
2019-01-23T20:20:14.108Z,-3.70
2019-01-23T20:22:43.624Z,-3.80
2019-01-23T20:25:18.999Z,-3.80
2019-01-23T20:27:49.083Z,-3.80
2019-01-23T20:30:39.571Z,-3.80
2019-01-23T20:33:17.604Z,-3.80
2019-01-23T20:35:56.327Z,-3.80
2019-01-23T20:48:27.580Z,-4.00
2019-01-23T20:57:59.633Z,-3.90
2019-01-23T21:03:34.778Z,-4.00
2019-01-23T21:06:01.917Z,-3.90
2019-01-23T21:08:30.658Z,-3.90
2019-01-23T21:11:05.939Z,-3.80
2019-01-23T21:13:30.446Z,-3.70
2019-01-23T21:19:57.863Z,-3.70
2019-01-23T21:22:32.278Z,-3.60
2019-01-23T21:25:02.813Z,-3.60
2019-01-23T21:33:42.165Z,-3.70
2019-01-23T21:42:57.623Z,-3.70
2019-01-23T21:45:30.613Z,-3.70
2019-01-23T21:48:19.795Z,-3.60
2019-01-23T21:50:58.823Z,-3.80
2019-01-23T21:53:32.292Z,-3.80
2019-01-23T21:56:13.676Z,-3.80
2019-01-23T21:58:52.657Z,-3.80
2019-01-23T22:01:34.602Z,-3.80
2019-01-23T22:04:19.557Z,-3.70
2019-01-23T22:06:51.846Z,-3.80
2019-01-23T22:09:20.549Z,-3.80
2019-01-23T22:11:49.193Z,-3.70
2019-01-23T22:14:18.978Z,-3.70
2019-01-23T22:16:49.137Z,-3.80
2019-01-23T22:19:19.013Z,-3.70
2019-01-23T22:22:09.537Z,-3.70
2019-01-23T22:30:41.069Z,-3.80
2019-01-23T22:33:38.927Z,-3.80
2019-01-23T22:39:44.656Z,-3.80
2019-01-23T22:42:13.461Z,-3.80
2019-01-23T22:44:43.998Z,-3.80
2019-01-23T22:47:14.415Z,-3.80
2019-01-23T22:49:46.509Z,-3.90
2019-01-23T22:52:15.864Z,-3.90
2019-01-23T22:54:47.229Z,-3.80
2019-01-23T22:57:17.451Z,-3.80
2019-01-23T22:59:47.803Z,-3.80
2019-01-23T23:02:17.350Z,-3.80
2019-01-23T23:08:57.418Z,-3.80
2019-01-23T23:11:33.154Z,-3.70
2019-01-23T23:14:37.019Z,-3.80
2019-01-23T23:21:18.524Z,-3.80
2019-01-23T23:23:50.146Z,-3.80
2019-01-23T23:26:19.784Z,-3.70
2019-01-23T23:28:48.441Z,-3.70
2019-01-23T23:31:17.028Z,-3.70
2019-01-23T23:33:51.297Z,-3.70
2019-01-23T23:36:38.662Z,-3.70
2019-01-23T23:39:08.473Z,-3.70
2019-01-23T23:41:43.887Z,-3.70
2019-01-23T23:44:19.212Z,-3.70
2019-01-23T23:49:50.992Z,-3.70
